createdAt,value
2019-04-05T00:02:59.894Z,5.60
2019-04-05T00:08:03.653Z,4.70
2019-04-05T00:13:07.657Z,4.10
2019-04-05T00:18:10.914Z,4.20
2019-04-05T00:23:14.178Z,5.63
2019-04-05T00:28:17.442Z,6.30
2019-04-05T00:33:20.704Z,6.60
2019-04-05T00:38:23.972Z,5.27
2019-04-05T00:43:27.577Z,5.10
2019-04-05T00:48:31.178Z,5.47
2019-04-05T00:53:34.494Z,6.37
2019-04-05T00:58:37.961Z,7.03
2019-04-05T01:03:41.289Z,6.40
2019-04-05T01:08:44.718Z,4.70
2019-04-05T01:13:48.564Z,5.20
2019-04-05T01:18:52.214Z,4.87
2019-04-05T01:23:56.546Z,4.33
2019-04-05T01:28:59.873Z,5.03
2019-04-05T01:34:05.393Z,5.53
2019-04-05T01:39:08.181Z,4.70
2019-04-05T01:44:11.826Z,4.80
2019-04-05T01:49:15.451Z,4.00
2019-04-05T01:54:18.714Z,4.10
2019-04-05T01:59:22.051Z,3.80
2019-04-05T02:04:25.701Z,4.67
2019-04-05T02:09:29.041Z,3.57
2019-04-05T02:14:32.365Z,4.50
2019-04-05T02:19:35.714Z,5.37
2019-04-05T02:24:39.406Z,4.03
2019-04-05T02:29:43.129Z,4.60
2019-04-05T02:34:46.862Z,4.57
2019-04-05T02:39:50.193Z,6.27
2019-04-05T02:44:54.179Z,6.70
2019-04-05T02:49:58.117Z,6.70
2019-04-05T02:55:02.260Z,7.50
2019-04-05T03:00:06.189Z,6.90
2019-04-05T03:05:10.096Z,5.80
2019-04-05T03:10:15.273Z,4.70
2019-04-05T03:15:18.606Z,4.23
2019-04-05T03:20:22.297Z,4.80
2019-04-05T03:25:27.393Z,4.67
2019-04-05T03:30:30.969Z,3.00
2019-04-05T03:35:34.292Z,3.50
2019-04-05T03:40:38.217Z,4.40
2019-04-05T03:45:41.468Z,3.30
2019-04-05T03:50:45.438Z,3.00
2019-04-05T03:55:48.941Z,3.60
2019-04-05T04:00:52.518Z,3.70
2019-04-05T04:05:55.782Z,4.13
2019-04-05T04:10:59.732Z,4.03
2019-04-05T04:16:03.183Z,4.10
2019-04-05T04:21:13.797Z,5.03
2019-04-05T04:26:17.328Z,4.77
2019-04-05T04:31:22.509Z,5.13
2019-04-05T04:36:25.839Z,5.20
2019-04-05T04:41:31.896Z,9.35
2019-04-05T04:46:35.137Z,8.03
2019-04-05T04:51:38.977Z,6.87
2019-04-05T04:56:42.779Z,6.30
2019-04-05T05:01:46.098Z,7.00
2019-04-05T05:06:49.720Z,8.90
2019-04-05T05:11:53.368Z,7.50
2019-04-05T05:16:56.693Z,6.83
2019-04-05T05:22:00.225Z,7.50
2019-04-05T05:27:04.061Z,7.87
2019-04-05T05:32:09.706Z,8.90
2019-04-05T05:37:12.392Z,8.97
2019-04-05T05:42:16.114Z,8.37
2019-04-05T05:47:19.920Z,9.23
2019-04-05T05:52:23.745Z,9.00
2019-04-05T05:57:27.002Z,9.30
2019-04-05T06:02:30.256Z,9.57
2019-04-05T06:07:33.584Z,10.57
2019-04-05T06:12:36.837Z,11.03
2019-04-05T06:17:40.155Z,11.93
2019-04-05T06:22:43.421Z,11.40
2019-04-05T06:27:46.688Z,11.23
2019-04-05T06:32:50.010Z,9.93
2019-04-05T06:37:53.302Z,11.10
2019-04-05T06:42:56.899Z,9.27
2019-04-05T06:48:00.153Z,9.93
2019-04-05T06:53:03.497Z,9.40
2019-04-05T06:58:10.227Z,9.90
2019-04-05T07:03:13.626Z,9.73
2019-04-05T07:08:18.502Z,10.03
2019-04-05T07:13:22.317Z,9.50
2019-04-05T07:18:34.041Z,9.87
2019-04-05T07:23:30.517Z,9.80
2019-04-05T07:28:34.139Z,9.90
2019-04-05T07:33:37.393Z,11.40
2019-04-05T07:38:40.658Z,12.83
2019-04-05T07:43:44.254Z,12.13
2019-04-05T07:48:47.509Z,12.87
2019-04-05T07:53:50.765Z,12.43
2019-04-05T07:58:54.410Z,12.17
2019-04-05T08:03:58.223Z,13.13
2019-04-05T08:09:05.156Z,12.47
2019-04-05T08:14:08.508Z,11.20
2019-04-05T08:19:11.843Z,11.33
2019-04-05T08:24:15.096Z,11.50
2019-04-05T08:29:18.440Z,11.73
2019-04-05T08:34:21.772Z,11.53
2019-04-05T08:39:25.029Z,12.17
2019-04-05T08:44:28.357Z,10.67
2019-04-05T08:49:31.691Z,11.03
2019-04-05T08:54:36.752Z,11.77
2019-04-05T08:59:39.865Z,11.97
2019-04-05T09:04:43.414Z,12.13
2019-04-05T09:09:46.669Z,11.80
2019-04-05T09:14:50.250Z,11.17
2019-04-05T09:19:54.076Z,12.47
2019-04-05T09:24:57.453Z,11.73
2019-04-05T09:30:01.145Z,11.63
2019-04-05T09:35:07.403Z,12.37
2019-04-05T09:40:10.738Z,13.50
2019-04-05T09:45:14.337Z,13.57
2019-04-05T09:50:17.670Z,14.27
2019-04-05T09:55:21.306Z,12.70
2019-04-05T10:00:26.677Z,12.90
2019-04-05T10:05:30.492Z,11.70
2019-04-05T10:10:33.726Z,11.47
2019-04-05T10:15:37.045Z,9.77
2019-04-05T10:20:40.312Z,9.33
2019-04-05T10:25:44.289Z,8.60
2019-04-05T10:30:47.990Z,8.73
2019-04-05T10:35:51.276Z,8.20
2019-04-05T10:40:54.537Z,10.00
2019-04-05T10:45:57.802Z,11.90
2019-04-05T10:51:01.128Z,13.73
2019-04-05T10:56:04.463Z,12.90
2019-04-05T11:01:07.803Z,13.30
2019-04-05T11:06:11.076Z,13.23
2019-04-05T11:11:14.457Z,12.53
2019-04-05T11:16:18.133Z,13.63
2019-04-05T11:21:21.761Z,13.30
2019-04-05T11:26:25.012Z,13.17
2019-04-05T11:31:28.425Z,14.00
2019-04-05T11:36:31.865Z,13.47
2019-04-05T11:41:36.208Z,13.40
2019-04-05T11:46:39.861Z,15.03
2019-04-05T11:51:43.497Z,14.13
2019-04-05T11:56:47.110Z,13.60
2019-04-05T12:01:58.076Z,15.00
2019-04-05T12:07:01.333Z,13.43
2019-04-05T12:12:04.761Z,14.97
2019-04-05T12:17:09.704Z,14.83
2019-04-05T12:22:13.409Z,14.93
2019-04-05T12:27:16.942Z,15.00
2019-04-05T12:32:32.918Z,15.03
2019-04-05T12:37:27.625Z,14.13
2019-04-05T12:42:31.381Z,13.87
2019-04-05T12:47:34.713Z,13.47
2019-04-05T12:52:37.997Z,14.50
2019-04-05T12:57:41.427Z,13.97
2019-04-05T13:02:44.667Z,12.80
2019-04-05T13:07:47.974Z,13.67
2019-04-05T13:12:51.948Z,13.27
2019-04-05T13:17:55.677Z,12.97
2019-04-05T13:23:02.508Z,12.93
2019-04-05T13:28:13.170Z,12.87
2019-04-05T13:33:09.674Z,13.50
2019-04-05T13:38:13.534Z,13.43
2019-04-05T13:43:17.823Z,14.20
2019-04-05T13:48:21.540Z,14.00
2019-04-05T13:53:24.831Z,13.60
2019-04-05T13:58:28.477Z,13.17
2019-04-05T14:03:31.804Z,14.07
2019-04-05T14:08:36.710Z,14.40
2019-04-05T14:13:42.822Z,14.40
2019-04-05T14:18:49.548Z,14.43
2019-04-05T14:23:51.330Z,14.20
2019-04-05T14:28:55.942Z,13.23
2019-04-05T14:33:59.209Z,12.83
2019-04-05T14:39:02.720Z,12.63
2019-04-05T14:44:06.047Z,12.60
2019-04-05T14:49:09.713Z,13.40
2019-04-05T14:54:12.980Z,13.77
2019-04-05T14:59:16.322Z,13.67
2019-04-05T15:04:19.615Z,12.90
2019-04-05T15:09:25.563Z,12.67
2019-04-05T15:14:27.859Z,12.70
2019-04-05T15:19:31.128Z,12.40
2019-04-05T15:24:34.403Z,11.67
2019-04-05T15:29:37.668Z,12.60
2019-04-05T15:34:41.244Z,12.90
2019-04-05T15:39:44.918Z,13.07
2019-04-05T15:44:48.171Z,12.90
2019-04-05T15:49:52.048Z,12.67
2019-04-05T15:54:56.708Z,13.50
2019-04-05T16:00:03.677Z,13.00
2019-04-05T16:05:06.358Z,12.00
2019-04-05T16:10:09.919Z,12.60
2019-04-05T16:15:13.584Z,12.70
2019-04-05T16:20:16.938Z,13.13
2019-04-05T16:25:20.267Z,13.67
2019-04-05T16:30:23.607Z,14.13
2019-04-05T16:35:26.881Z,12.60
2019-04-05T16:40:31.527Z,12.83
2019-04-05T16:45:38.353Z,12.83
2019-04-05T16:50:42.253Z,12.80
2019-04-05T16:55:45.400Z,13.67
2019-04-05T17:00:48.661Z,13.30
2019-04-05T17:05:52.329Z,12.37
2019-04-05T17:10:55.575Z,12.27
2019-04-05T17:15:59.175Z,12.03
2019-04-05T17:21:02.896Z,11.87
2019-04-05T17:26:06.220Z,10.27
2019-04-05T17:31:09.489Z,10.50
2019-04-05T17:36:12.837Z,10.27
2019-04-05T17:41:16.183Z,10.37
2019-04-05T17:46:19.848Z,10.30
2019-04-05T17:51:23.169Z,10.97
2019-04-05T17:56:26.823Z,11.33
2019-04-05T18:01:30.639Z,10.17
2019-04-05T18:06:34.233Z,9.10
2019-04-05T18:11:37.603Z,13.13
2019-04-05T18:16:40.874Z,21.47
2019-04-05T18:21:44.613Z,12.70
2019-04-05T18:26:47.872Z,20.10
2019-04-05T18:31:51.128Z,13.03
2019-04-05T18:36:56.049Z,14.03
2019-04-05T18:41:59.524Z,14.60
2019-04-05T18:47:02.868Z,15.27
2019-04-05T18:52:06.997Z,18.10
2019-04-05T18:57:10.265Z,18.70
2019-04-05T19:02:13.604Z,14.37
2019-04-05T19:07:16.952Z,15.27
2019-04-05T19:12:20.300Z,19.90
2019-04-05T19:17:24.682Z,15.47
2019-04-05T19:22:28.391Z,17.93
2019-04-05T19:27:31.801Z,14.67
2019-04-05T19:52:55.053Z,17.33
2019-04-05T19:57:58.427Z,22.20
2019-04-05T20:03:01.758Z,11.53
2019-04-05T20:08:05.107Z,10.70
2019-04-05T20:13:08.564Z,10.53
2019-04-05T20:18:11.841Z,10.63
2019-04-05T20:23:15.096Z,11.40
2019-04-05T20:28:18.611Z,11.50
2019-04-05T20:33:22.277Z,10.63
2019-04-05T20:38:25.562Z,10.77
2019-04-05T20:43:28.820Z,9.20
2019-04-05T20:48:32.377Z,10.10
2019-04-05T20:53:35.708Z,8.93
2019-04-05T20:58:39.055Z,9.20
2019-04-05T21:03:42.342Z,13.60
2019-04-05T21:08:45.671Z,9.47
2019-04-05T21:13:49.053Z,10.33
2019-04-05T21:18:52.964Z,13.97
2019-04-05T21:23:56.228Z,8.93
2019-04-05T21:28:59.506Z,11.10
2019-04-05T21:34:02.908Z,11.37
2019-04-05T21:39:06.881Z,9.67
2019-04-05T21:44:10.220Z,7.20
2019-04-05T21:49:13.505Z,6.20
2019-04-05T21:54:17.196Z,6.00
2019-04-05T21:59:20.460Z,6.87
2019-04-05T22:04:23.779Z,6.17
2019-04-05T22:09:27.547Z,6.40
2019-04-05T22:14:30.876Z,6.03
2019-04-05T22:19:34.132Z,8.07
2019-04-05T22:24:37.793Z,9.30
2019-04-05T22:29:41.061Z,8.53
2019-04-05T22:34:44.315Z,5.47
2019-04-05T22:39:47.923Z,5.40
2019-04-05T22:44:51.240Z,9.43
2019-04-05T22:49:54.579Z,7.50
2019-04-05T22:54:57.831Z,8.53
2019-04-05T23:00:01.114Z,5.40
2019-04-05T23:05:05.262Z,15.90
2019-04-05T23:10:08.680Z,16.77
2019-04-05T23:15:12.327Z,6.43
2019-04-05T23:20:36.390Z,5.10
2019-04-05T23:25:39.717Z,8.20
2019-04-05T23:30:42.984Z,13.43
2019-04-05T23:35:46.691Z,8.97
2019-04-05T23:40:50.033Z,6.47
2019-04-05T23:45:53.628Z,7.77
2019-04-05T23:50:56.888Z,8.97
2019-04-05T23:56:00.235Z,7.07
